Hlavní strana
METAR-TAF:

METAR-TAF

Letiště :

Nalčik, Rusko

zeměpisná šířka: 43-30-46N, zeměpisná délka: 043-38-12E, výška: 445 m

Aktuální stav počasí

Zpráva byla vytvořena před 29 minutami, v 12:00 UTC
Východojihovýchodní vítr 8 kt
Teplota 22°C
Vlhkost vzduchu 57%
Tlak 1011 hPa
Viditelnost 10 km a více
Oblačno až skoro zataženo ve výšce 3200 ft, Cumulonimbus.
Zataženo

METAR: URMN 041200Z 11004MPS 9999 BKN032CB OVC/// 22/13 Q1011 R24/////// NOSIG RMK QFE722

Čas: 16:29 (12:29 UTC)

Předpověď počasí

Zpráva byla vytvořena před 1 hodinou a 29 minutami, v 11:00 UTC
Předpověď platná od 04 v 12 UTC do 04 v 21 UTC
Severoseverovýchodní vítr 6 kt
Viditelnost 10 km a více
Oblačno až skoro zataženo ve výšce 2000 ft, Cumulonimbus.
Dočasný
od 04 v 12 UTC do 04 v 18 UTC
vítr z různých směrů 14 kt s nárazy do 27 kt
Oblačno až skoro zataženo ve výšce 2000 ft, Cumulonimbus.
bouřka, slabý déšť

TAF: URMN 041100Z 0412/0421 02003MPS 9999 BKN020CB TEMPO 0412/0418 VRB07G14MPS -TSRA BKN020CB

Stav a předpovědi počasí z více než 4 000 letišť (zprávy METAR a TAF).

Červené a žluté tečky na mapě představují dostupné meteorologické stanice.

Když kurzor umístíte na tečku, zobrazí se název stanice.

Pak kliknutím zobrazíte stav a předpověď počasí.

Chcete-li změnit mapu, kliknutím na zelené tlačítko se znaménkem +mapu přiblížíte, kliknutím na zelené tlačítko se znaménkem – mapu oddálíte a kliknutím na zelené šipky přejdete na sousední mapy.


METAR-TAF: